Bond, Illinois
Current Conditions -  °F | °C
As of 4:53 AM on Friday 28 Nov 2014 (Local Time) from KLWV Reporting Station
Clear Clear  
Wind Chill: -5°   Ceiling: Unl
Heat Index: -5°   Visibility: 7mi
Dew Point: -7°   Wind: 3mph
Humidity: 88%   Direction: 120°ESE
Pressure: 30.41"   Gusts: NA
Location:  38.7501°N, 87.6141°W
Report Text: KLWV 281053Z AUTO 12003KT 7SM CLR M05/M07 A3041 RMK AO2 SLP303 T10501067
Loading
Personal Weather Stations






























Interactive Weather Map New forecast layout! Learn more

10-Day Weather Forecast

Advertisements
Track Severe Weather on mobile